.
WxDataArchive / Data Records for 2007-08-26
2007-08-25 August 2007 2007-08-27

Data Records for Sunday, 26 August 2007

Time	Temp	Chill	HIndex	Humid	Dewpt	 Wind 	HiWind	WindDir	Rain 	Barom 
-----	----	-----	------	-----	-----	------	------	-------	-----	----- 
00:00	63.4	63.4	63.4	88	59.8	0	0	---	0.00	29.948 
00:05	63.4	63.4	63.4	88	59.8	0	0	---	0.00	29.950 
00:10	63.2	63.2	63.2	89	59.9	0	0	---	0.00	29.951 
00:15	63.2	63.2	63.2	89	59.9	0	0	---	0.00	29.950 
00:20	63.1	63.1	63.1	89	59.8	0	1	315	0.00	29.951 
00:25	62.9	62.9	62.9	89	59.6	0	0	---	0.00	29.951 
00:30	62.7	62.7	62.7	89	59.4	0	0	---	0.00	29.950 
00:35	62.6	62.6	62.6	89	59.3	0	0	---	0.00	29.950 
00:40	62.6	62.6	62.6	89	59.3	0	0	---	0.00	29.951 
00:45	62.4	62.4	62.4	89	59.1	0	0	---	0.00	29.951 
00:50	62.4	62.4	62.4	89	59.1	0	1	315	0.00	29.954 
00:55	62.3	62.3	62.3	89	59.0	0	0	---	0.00	29.955 
01:00	62.1	62.1	62.1	89	58.8	0	0	---	0.00	29.957 
01:05	62.1	62.1	62.1	89	58.8	0	0	---	0.00	29.954 
01:10	62.1	62.1	62.1	89	58.8	0	1	315	0.00	29.952 
01:15	62.1	62.1	62.1	89	58.8	0	1	315	0.00	29.954 
01:20	62.0	62.0	62.0	88	58.4	0	1	315	0.00	29.958 
01:25	62.0	62.0	62.0	88	58.4	0	0	---	0.00	29.956 
01:30	61.8	61.8	61.8	88	58.2	0	0	---	0.00	29.952 
01:35	61.8	61.8	61.8	88	58.2	0	1	315	0.00	29.955 
01:40	61.6	61.6	61.6	88	58.0	0	1	315	0.00	29.956 
01:45	61.6	61.6	61.6	88	58.0	0	0	---	0.00	29.957 
01:50	61.5	61.5	61.5	88	57.9	0	0	---	0.00	29.957 
01:55	61.5	61.5	61.5	88	57.9	0	1	315	0.00	29.959 
02:00	61.3	61.3	61.3	88	57.7	0	0	---	0.00	29.964 
02:05	61.3	61.3	61.3	88	57.7	0	0	---	0.00	29.963 
02:10	61.2	61.2	61.2	88	57.6	0	0	---	0.00	29.964 
02:15	61.0	61.0	61.0	88	57.4	0	1	315	0.00	29.964 
02:20	61.0	61.0	61.0	88	57.4	0	0	---	0.00	29.964 
02:25	60.9	60.9	60.9	88	57.3	0	0	---	0.00	29.965 
02:30	60.9	60.9	60.9	89	57.6	0	0	---	0.00	29.965 
02:35	60.7	60.7	60.7	88	57.1	0	1	315	0.00	29.965 
02:40	60.7	60.7	60.7	88	57.1	0	0	---	0.00	29.965 
02:45	60.7	60.7	60.7	88	57.1	0	0	---	0.00	29.964 
02:50	60.5	60.5	60.5	88	56.9	0	0	---	0.00	29.965 
02:55	60.4	60.4	60.4	88	56.8	0	0	---	0.00	29.965 
03:00	60.4	60.4	60.4	88	56.8	0	0	---	0.00	29.966 
03:05	60.2	60.2	60.2	88	56.6	0	0	---	0.00	29.964 
03:10	60.1	60.1	60.1	89	56.8	0	0	---	0.00	29.965 
03:15	59.9	59.9	59.9	89	56.6	0	0	---	0.00	29.966 
03:20	59.8	59.8	59.8	89	56.5	0	0	---	0.00	29.966 
03:25	59.6	59.6	59.6	89	56.4	0	0	---	0.00	29.968 
03:30	59.5	59.5	59.5	89	56.3	0	0	---	0.00	29.971 
03:35	59.2	59.2	59.2	90	56.3	0	0	---	0.00	29.976 
03:40	59.0	59.0	59.0	90	56.1	0	0	---	0.00	29.976 
03:45	58.9	58.9	58.9	91	56.3	0	0	---	0.00	29.977 
03:50	58.6	58.6	58.6	91	56.0	0	0	---	0.00	29.978 
03:55	58.4	58.4	58.4	91	55.8	0	0	---	0.00	29.979 
04:00	58.3	58.3	58.3	92	56.0	0	0	---	0.00	29.979 
04:05	58.1	58.1	58.1	92	55.8	0	0	---	0.00	29.981 
04:10	58.0	58.0	58.0	92	55.7	0	0	---	0.00	29.980 
04:15	57.8	57.8	57.8	93	55.8	0	0	---	0.00	29.982 
04:20	57.6	57.6	57.6	93	55.6	0	0	---	0.00	29.983 
04:25	57.5	57.5	57.5	93	55.5	0	0	---	0.00	29.983 
04:30	57.3	57.3	57.3	94	55.6	0	0	---	0.00	29.984 
04:35	57.3	57.3	57.3	94	55.6	0	0	---	0.00	29.988 
04:40	57.2	57.2	57.2	94	55.5	0	0	---	0.00	29.990 
04:45	57.3	57.3	57.3	94	55.6	0	0	---	0.00	29.992 
04:50	57.2	57.2	57.2	95	55.8	0	0	---	0.00	29.996 
04:55	57.2	57.2	57.2	95	55.8	0	0	---	0.00	29.996 
05:00	57.0	57.0	57.0	95	55.6	0	0	---	0.00	29.997 
05:05	57.0	57.0	57.0	95	55.6	0	0	---	0.00	29.999 
05:10	56.9	56.9	56.9	95	55.5	0	0	---	0.00	30.001 
05:15	56.9	56.9	56.9	95	55.5	0	0	---	0.00	30.006 
05:20	56.9	56.9	56.9	95	55.5	0	0	---	0.00	30.009 
05:25	56.7	56.7	56.7	95	55.3	0	0	---	0.00	30.011 
05:30	56.7	56.7	56.7	95	55.3	0	0	---	0.00	30.012 
05:35	56.6	56.6	56.6	96	55.5	0	0	---	0.00	30.011 
05:40	56.6	56.6	56.6	96	55.5	0	0	---	0.00	30.013 
05:45	56.7	56.7	56.7	96	55.6	0	0	---	0.00	30.014 
05:50	56.9	56.9	56.9	96	55.8	0	0	---	0.00	30.016 
05:55	57.0	57.0	57.0	96	55.9	0	0	---	0.00	30.016 
06:00	57.0	57.0	57.0	96	55.9	0	0	---	0.00	30.016 
06:05	57.2	57.2	57.2	96	56.1	0	0	---	0.00	30.019 
06:10	57.2	57.2	57.2	96	56.1	0	0	---	0.00	30.023 
06:15	57.3	57.3	57.3	96	56.2	0	0	---	0.00	30.021 
06:20	57.3	57.3	57.3	95	55.9	0	0	---	0.00	30.023 
06:25	57.5	57.5	57.5	95	56.1	0	0	---	0.00	30.025 
06:30	57.5	57.5	57.5	95	56.1	0	0	---	0.00	30.027 
06:35	57.8	57.8	57.8	95	56.4	0	0	---	0.00	30.027 
06:40	58.0	58.0	58.0	94	56.3	0	0	---	0.00	30.029 
06:45	58.3	58.3	58.3	94	56.6	0	0	---	0.00	30.030 
06:50	58.6	58.6	58.6	93	56.6	0	0	---	0.00	30.033 
06:55	58.9	58.9	58.9	93	56.9	0	0	---	0.00	30.033 
07:00	59.2	59.2	59.2	92	56.9	0	1	315	0.00	30.035 
07:05	59.6	59.6	59.6	91	57.0	0	1	292	0.00	30.037 
07:10	60.1	60.1	60.1	89	56.8	0	1	292	0.00	30.038 
07:15	60.7	60.7	60.7	88	57.1	0	1	292	0.00	30.034 
07:20	61.2	61.2	61.2	87	57.3	0	2	292	0.00	30.036 
07:25	61.8	61.8	61.8	86	57.6	0	1	270	0.00	30.038 
07:30	62.4	62.4	62.4	84	57.5	0	0	---	0.00	30.041 
07:35	63.2	63.2	63.2	82	57.6	0	0	---	0.00	30.042 
07:40	63.9	63.9	63.9	79	57.3	0	2	248	0.00	30.043 
07:45	64.2	64.2	64.2	80	57.9	0	1	248	0.00	30.044 
07:50	64.7	64.7	64.7	79	58.0	0	2	202	0.00	30.043 
07:55	65.0	65.0	65.0	78	58.0	0	3	202	0.00	30.044 
08:00	65.3	65.3	65.3	77	57.9	0	2	158	0.00	30.045 
08:05	65.5	65.5	65.5	77	58.1	0	2	158	0.00	30.047 
08:10	65.8	65.8	65.8	78	58.7	0	1	158	0.00	30.050 
08:15	65.8	65.8	65.8	76	58.0	0	4	112	0.00	30.053 
08:20	65.8	65.8	65.8	76	58.0	0	1	112	0.00	30.053 
08:25	66.1	66.1	66.1	78	59.0	0	1	112	0.00	30.052 
08:30	66.4	66.4	66.4	76	58.6	0	2	112	0.00	30.053 
08:35	66.9	66.9	66.9	74	58.3	0	1	112	0.00	30.050 
08:40	67.3	67.3	67.3	72	58.0	1	4	112	0.00	30.049 
08:45	67.6	67.6	67.6	74	59.0	1	3	90	0.00	30.052 
08:50	68.3	68.3	68.3	71	58.5	0	2	68	0.00	30.056 
08:55	68.9	68.9	68.9	69	58.3	1	3	68	0.00	30.055 
09:00	69.4	69.4	69.4	70	59.2	0	2	68	0.00	30.057 
09:05	69.9	69.9	69.9	69	59.3	0	3	90	0.00	30.058 
09:10	70.3	70.3	70.3	70	60.0	0	2	90	0.00	30.059 
09:15	70.9	70.9	70.9	67	59.4	1	2	90	0.00	30.058 
09:20	71.3	71.3	71.3	64	58.5	1	3	90	0.00	30.060 
09:25	71.6	71.6	71.6	63	58.3	1	4	112	0.00	30.058 
09:30	72.0	72.0	72.0	62	58.3	1	4	135	0.00	30.060 
09:35	72.3	72.3	72.3	64	59.4	1	3	112	0.00	30.063 
09:40	72.5	72.5	72.5	62	58.7	1	3	112	0.00	30.067 
09:45	72.8	72.8	72.8	64	59.9	1	4	112	0.00	30.067 
09:50	73.2	73.2	73.2	62	59.4	1	4	68	0.00	30.068 
09:55	73.7	73.7	73.7	61	59.4	1	3	90	0.00	30.068 
10:00	73.7	73.7	73.7	59	58.5	0	2	90	0.00	30.068 
10:05	74.0	74.0	74.0	63	60.6	1	3	112	0.00	30.068 
10:10	73.9	73.9	73.9	59	58.7	1	4	90	0.00	30.068 
10:15	73.7	73.7	73.7	57	57.5	3	6	90	0.00	30.070 
10:20	73.3	73.3	73.3	60	58.6	2	6	112	0.00	30.071 
10:25	73.5	73.5	73.5	59	58.3	2	5	90	0.00	30.066 
10:30	73.7	73.7	73.7	58	58.0	2	5	112	0.00	30.068 
10:35	74.0	74.0	74.0	61	59.7	0	2	112	0.00	30.069 
10:40	74.4	74.4	74.4	54	56.7	2	5	90	0.00	30.071 
10:45	74.4	74.4	74.4	56	57.7	2	6	90	0.00	30.072 
10:50	74.6	74.6	74.6	56	57.8	1	3	112	0.00	30.073 
10:55	74.6	74.6	74.6	58	58.8	2	5	112	0.00	30.072 
11:00	74.7	74.7	74.7	58	58.9	0	3	135	0.00	30.073 
11:05	75.1	75.1	77.6	55	57.8	0	4	135	0.00	30.074 
11:10	75.4	75.4	77.8	51	56.0	1	5	45	0.00	30.073 
11:15	75.6	75.6	77.9	52	56.7	1	7	112	0.00	30.073 
11:20	75.4	75.4	77.6	59	60.1	1	4	112	0.00	30.072 
11:25	75.4	75.4	77.8	54	57.6	0	2	68	0.00	30.071 
11:30	75.4	75.4	77.8	53	57.1	2	4	112	0.00	30.072 
11:35	75.4	75.4	77.8	54	57.6	2	5	112	0.00	30.072 
11:40	75.4	75.4	77.7	57	59.1	2	4	112	0.00	30.073 
11:45	75.6	75.6	77.9	50	55.6	1	4	112	0.00	30.073 
11:50	75.8	75.8	78.0	55	58.5	1	4	112	0.00	30.073 
11:55	76.1	76.1	78.1	51	56.6	1	5	112	0.00	30.073 
12:00	76.5	76.5	78.4	56	59.6	0	4	68	0.00	30.070 
12:05	75.8	75.8	78.0	50	55.8	1	3	292	0.00	30.071 
12:10	76.0	76.0	78.0	58	60.1	1	4	22	0.00	30.072 
12:15	76.1	76.1	78.1	50	56.1	2	5	90	0.00	30.069 
12:20	76.1	76.1	78.1	52	57.2	1	5	112	0.00	30.069 
12:25	76.3	76.3	78.3	55	58.9	2	5	112	0.00	30.067 
12:30	76.3	76.3	78.2	50	56.3	1	5	90	0.00	30.068 
12:35	76.5	76.5	78.3	49	55.9	1	3	68	0.00	30.067 
12:40	76.5	76.5	78.3	50	56.5	2	6	90	0.00	30.068 
12:45	76.3	76.3	78.3	55	58.9	2	6	90	0.00	30.068 
12:50	75.8	75.8	78.0	51	56.4	3	7	112	0.00	30.068 
12:55	76.1	76.1	78.1	55	58.7	1	3	135	0.00	30.066 
13:00	76.5	76.5	78.4	55	59.1	1	5	112	0.00	30.067 
13:05	76.8	76.8	78.5	51	57.3	0	2	112	0.00	30.064 
13:10	77.4	77.4	79.0	55	59.9	1	6	90	0.00	30.062 
13:15	77.2	77.2	78.7	50	57.1	0	2	90	0.00	30.061 
13:20	76.3	76.3	78.2	52	57.4	1	2	90	0.00	30.061 
13:25	75.4	75.4	77.7	55	58.1	0	2	90	0.00	30.062 
13:30	75.8	75.8	77.9	56	59.0	0	2	90	0.00	30.061 
13:35	76.5	76.5	78.3	47	54.7	2	5	90	0.00	30.060 
13:40	76.7	76.7	78.4	51	57.2	2	6	112	0.00	30.060 
13:45	76.8	76.8	78.5	51	57.3	2	6	90	0.00	30.060 
13:50	76.7	76.7	78.4	47	54.9	1	4	90	0.00	30.058 
13:55	77.0	77.0	78.5	47	55.2	1	4	112	0.00	30.057 
14:00	77.7	77.7	79.1	51	58.1	1	4	112	0.00	30.057 
14:05	77.6	77.6	78.8	47	55.8	1	3	90	0.00	30.057 
14:10	77.6	77.6	78.9	48	56.3	1	3	90	0.00	30.055 
14:15	77.0	77.0	78.6	51	57.5	3	7	112	0.00	30.053 
14:20	76.8	76.8	78.5	51	57.3	1	6	90	0.00	30.050 
14:25	76.1	76.1	78.1	50	56.1	0	1	68	0.00	30.052 
14:30	76.1	76.1	78.1	53	57.7	0	2	315	0.00	30.047 
14:35	76.8	76.8	78.4	48	55.6	0	2	315	0.00	30.046 
14:40	77.2	77.2	78.6	46	54.8	2	5	90	0.00	30.046 
14:45	77.0	77.0	78.5	47	55.2	2	6	112	0.00	30.044 
14:50	77.2	77.2	78.7	48	56.0	2	4	90	0.00	30.043 
14:55	77.6	77.6	78.8	47	55.8	2	6	90	0.00	30.041 
15:00	77.4	77.4	78.8	49	56.7	2	4	112	0.00	30.042 
15:05	77.4	77.4	78.7	47	55.6	2	5	90	0.00	30.045 
15:10	77.2	77.2	78.7	49	56.5	1	3	90	0.00	30.045 
15:15	77.0	77.0	78.6	49	56.4	1	4	90	0.00	30.045 
15:20	77.6	77.6	78.8	46	55.2	0	2	90	0.00	30.045 
15:25	78.1	78.1	79.2	47	56.2	0	2	90	0.00	30.043 
15:30	78.5	78.5	79.4	46	56.0	0	2	90	0.00	30.042 
15:35	79.0	79.0	80.2	53	60.4	0	2	90	0.00	30.040 
15:40	78.1	78.1	79.2	47	56.2	1	4	90	0.00	30.041 
15:45	76.7	76.7	78.4	48	55.5	1	4	90	0.00	30.039 
15:50	76.0	76.0	78.0	48	54.9	1	3	90	0.00	30.038 
15:55	76.1	76.1	78.0	46	53.8	1	3	90	0.00	30.035 
16:00	76.8	76.8	78.4	48	55.6	0	2	112	0.00	30.035 
16:05	76.8	76.8	78.4	47	55.0	0	2	112	0.00	30.036 
16:10	76.7	76.7	78.4	51	57.2	0	1	112	0.00	30.036 
16:15	76.1	76.1	78.1	47	54.4	1	5	112	0.00	30.037 
16:20	75.8	75.8	78.0	48	54.7	1	4	90	0.00	30.034 
16:25	76.1	76.1	78.1	47	54.4	1	4	90	0.00	30.033 
16:30	76.3	76.3	78.1	46	54.0	2	4	90	0.00	30.032 
16:35	76.3	76.3	78.2	48	55.1	1	3	90	0.00	30.032 
16:40	76.3	76.3	78.2	47	54.6	1	4	90	0.00	30.031 
16:45	76.3	76.3	78.2	49	55.7	1	2	90	0.00	30.032 
16:50	76.3	76.3	78.2	48	55.1	2	4	90	0.00	30.031 
16:55	76.0	76.0	78.0	48	54.9	1	3	112	0.00	30.031 
17:00	75.8	75.8	78.0	49	55.3	1	3	112	0.00	30.031 
17:05	75.3	75.3	77.7	50	55.4	2	3	112	0.00	30.032 
17:10	74.9	74.9	74.9	50	55.0	1	2	112	0.00	30.031 
17:15	74.4	74.4	74.4	54	56.7	1	2	112	0.00	30.031 
17:20	74.0	74.0	74.0	56	57.3	1	3	112	0.00	30.032 
17:25	73.9	73.9	73.9	53	55.7	0	3	112	0.00	30.032 
17:30	74.0	74.0	74.0	52	55.2	0	1	112	0.00	30.031 
17:35	74.2	74.2	74.2	50	54.3	1	3	112	0.00	30.031 
17:40	74.4	74.4	74.4	49	54.0	0	3	112	0.00	30.029 
17:45	74.6	74.6	74.6	50	54.7	0	1	112	0.00	30.028 
17:50	74.4	74.4	74.4	51	55.1	1	5	112	0.00	30.028 
17:55	74.6	74.6	74.6	52	55.8	2	5	90	0.00	30.030 
18:00	74.4	74.4	74.4	51	55.1	1	3	90	0.00	30.032 
18:05	74.4	74.4	74.4	51	55.1	1	3	90	0.00	30.030 
18:10	74.2	74.2	74.2	54	56.5	0	2	90	0.00	30.029 
18:15	74.0	74.0	74.0	53	55.8	0	2	90	0.00	30.028 
18:20	73.9	73.9	73.9	56	57.2	0	1	90	0.00	30.026 
18:25	73.7	73.7	73.7	53	55.5	0	1	90	0.00	30.026 
18:30	73.5	73.5	73.5	54	55.8	0	2	90	0.00	30.026 
18:35	73.3	73.3	73.3	55	56.1	0	1	90	0.00	30.027 
18:40	73.2	73.2	73.2	56	56.5	0	1	90	0.00	30.027 
18:45	73.0	73.0	73.0	58	57.3	0	1	90	0.00	30.028 
18:50	72.7	72.7	72.7	58	57.1	0	0	---	0.00	30.030 
18:55	72.3	72.3	72.3	59	57.2	0	0	---	0.00	30.032 
19:00	71.8	71.8	71.8	59	56.7	0	0	---	0.00	30.032 
19:05	71.5	71.5	71.5	61	57.3	0	0	---	0.00	30.028 
19:10	71.1	71.1	71.1	61	57.0	0	0	---	0.00	30.029 
19:15	70.8	70.8	70.8	62	57.1	0	0	---	0.00	30.028 
19:20	70.4	70.4	70.4	63	57.2	0	0	---	0.00	30.031 
19:25	69.9	69.9	69.9	64	57.2	0	0	---	0.00	30.032 
19:30	69.4	69.4	69.4	65	57.1	0	0	---	0.00	30.033 
19:35	68.9	68.9	68.9	67	57.5	0	0	---	0.00	30.035 
19:40	68.4	68.4	68.4	68	57.4	0	0	---	0.00	30.037 
19:45	67.9	67.9	67.9	69	57.3	0	0	---	0.00	30.040 
19:50	67.6	67.6	67.6	71	57.9	0	0	---	0.00	30.040 
19:55	67.3	67.3	67.3	72	58.0	0	0	---	0.00	30.041 
20:00	66.9	66.9	66.9	73	58.0	0	0	---	0.00	30.044 
20:05	66.4	66.4	66.4	75	58.2	0	0	---	0.00	30.041 
20:10	66.3	66.3	66.3	78	59.2	0	0	---	0.00	30.044 
20:15	66.0	66.0	66.0	80	59.6	0	0	---	0.00	30.045 
20:20	65.6	65.6	65.6	80	59.3	0	0	---	0.00	30.046 
20:25	65.3	65.3	65.3	80	59.0	0	0	---	0.00	30.046 
20:30	65.0	65.0	65.0	80	58.7	0	0	---	0.00	30.047 
20:35	64.8	64.8	64.8	80	58.5	0	0	---	0.00	30.049 
20:40	64.5	64.5	64.5	80	58.2	0	0	---	0.00	30.049 
20:45	64.3	64.3	64.3	81	58.3	0	0	---	0.00	30.050 
20:50	64.0	64.0	64.0	81	58.0	0	0	---	0.00	30.049 
20:55	63.9	63.9	63.9	81	57.9	0	0	---	0.00	30.048 
21:00	63.7	63.7	63.7	83	58.4	0	0	---	0.00	30.051 
21:05	63.5	63.5	63.5	84	58.6	0	0	---	0.00	30.050 
21:10	63.4	63.4	63.4	84	58.5	0	0	---	0.00	30.053 
21:15	63.2	63.2	63.2	85	58.6	0	0	---	0.00	30.054 
21:20	63.1	63.1	63.1	86	58.8	0	0	---	0.00	30.056 
21:25	62.9	62.9	62.9	86	58.6	0	0	---	0.00	30.057 
21:30	62.6	62.6	62.6	87	58.7	0	0	---	0.00	30.057 
21:35	62.4	62.4	62.4	87	58.5	0	0	---	0.00	30.058 
21:40	62.3	62.3	62.3	88	58.7	0	0	---	0.00	30.059 
21:45	62.3	62.3	62.3	88	58.7	0	0	---	0.00	30.060 
21:50	62.1	62.1	62.1	89	58.8	0	0	---	0.00	30.061 
21:55	62.0	62.0	62.0	89	58.7	0	0	---	0.00	30.064 
22:00	61.8	61.8	61.8	90	58.8	0	0	---	0.00	30.063 
22:05	61.6	61.6	61.6	90	58.6	0	0	---	0.00	30.065 
22:10	61.5	61.5	61.5	90	58.5	0	0	---	0.00	30.068 
22:15	61.5	61.5	61.5	90	58.5	0	0	---	0.00	30.068 
22:20	61.3	61.3	61.3	90	58.3	0	0	---	0.00	30.071 
22:25	61.2	61.2	61.2	91	58.5	0	0	---	0.00	30.073 
22:30	61.0	61.0	61.0	91	58.4	0	0	---	0.00	30.074 
22:35	60.9	60.9	60.9	91	58.3	0	0	---	0.00	30.074 
22:40	60.7	60.7	60.7	92	58.4	0	0	---	0.00	30.074 
22:45	60.5	60.5	60.5	92	58.2	0	0	---	0.00	30.074 
22:50	60.4	60.4	60.4	92	58.1	0	0	---	0.00	30.076 
22:55	60.4	60.4	60.4	92	58.1	0	0	---	0.00	30.075 
23:00	60.2	60.2	60.2	92	57.9	0	0	---	0.00	30.075 
23:05	60.1	60.1	60.1	92	57.8	0	0	---	0.00	30.075 
23:10	59.9	59.9	59.9	93	57.9	0	0	---	0.00	30.074 
23:15	59.9	59.9	59.9	93	57.9	0	0	---	0.00	30.075 
23:20	59.9	59.9	59.9	93	57.9	0	0	---	0.00	30.075 
23:25	59.8	59.8	59.8	94	58.1	0	0	---	0.00	30.075 
23:30	59.8	59.8	59.8	94	58.1	0	0	---	0.00	30.074 
23:35	59.6	59.6	59.6	94	57.9	0	0	---	0.00	30.074 
23:40	59.5	59.5	59.5	94	57.8	0	0	---	0.00	30.074 
23:45	59.3	59.3	59.3	94	57.6	0	0	---	0.00	30.074 
23:50	59.2	59.2	59.2	94	57.5	0	0	---	0.00	30.075 
23:55	59.0	59.0	59.0	94	57.3	0	0	---	0.00	30.074 

CoCoRaHS
IN-AL-39
A2 Web Hosting
Creative Commons License
GoDaddy
Look for:

loaded 2017-10-17 22:22:47 • last modified 2010-11-18 10:43:29
Privacy PolicyDisclaimer
• wx.awcolley.com is powered by PmWiki v.2002016 •
• all content (unless otherwise noted) © 2017 A W Colley